Time;durP1;ratioP1;P1;durP2;ratioP2;P2;SDS_P1;SDS_P2;PMS_P1;PMS_P2;Temp;Humidity;BMP_temperature;BMP_pressure;BME280_temperature;BME280_humidity;BME280_pressure;Samples;Min_cycle;Max_cycle;Signal;HPM_P1;HPM_P2
2022/01/04 00:00:29;;;;;;;80.75;36.58;;;6.90;99.90;;;;;;5054104;28;20025;-78
2022/01/04 00:02:55;;;;;;;167.15;86.20;;;7.00;99.90;;;;;;5036077;28;20382;-78
2022/01/04 00:05:21;;;;;;;395.80;216.90;;;7.10;99.90;;;;;;5054115;28;20060;-78
2022/01/04 00:07:47;;;;;;;169.63;88.53;;;7.20;99.90;;;;;;5053878;28;20082;-77
2022/01/04 00:10:20;;;;;;;102.68;54.42;;;7.20;99.90;;;;;;5054019;28;20025;-78
2022/01/04 00:15:30;;;;;;;78.78;39.70;;;7.10;99.90;;;;;;5054107;28;20386;-78
2022/01/04 00:17:56;;;;;;;75.15;38.42;;;7.10;99.90;;;;;;5053753;28;20355;-77
2022/01/04 00:20:23;;;;;;;73.75;36.53;;;7.10;99.90;;;;;;5035925;28;20028;-78
2022/01/04 00:22:48;;;;;;;70.35;36.95;;;7.00;99.90;;;;;;5053527;28;20033;-76
2022/01/04 00:25:15;;;;;;;72.57;35.17;;;7.00;99.90;;;;;;5053703;28;20027;-78
2022/01/04 00:27:42;;;;;;;68.95;35.40;;;7.00;99.90;;;;;;5035576;28;20049;-77
2022/01/04 00:30:08;;;;;;;70.35;34.88;;;7.00;99.90;;;;;;5053668;28;20027;-78
2022/01/04 00:32:34;;;;;;;69.72;33.90;;;6.90;99.90;;;;;;5035586;28;20490;-78
2022/01/04 00:35:00;;;;;;;69.75;33.58;;;6.90;99.90;;;;;;5053237;28;20027;-78
2022/01/04 00:37:26;;;;;;;70.00;31.70;;;6.90;99.90;;;;;;5035400;28;20035;-77
2022/01/04 00:39:52;;;;;;;67.72;32.65;;;6.90;99.90;;;;;;5053325;28;20548;-78
2022/01/04 00:42:18;;;;;;;67.05;31.60;;;6.90;99.90;;;;;;5053062;28;20028;-78
2022/01/04 00:44:43;;;;;;;65.93;31.92;;;6.90;99.90;;;;;;5053214;28;20390;-77
2022/01/04 00:47:10;;;;;;;66.63;32.03;;;6.90;99.90;;;;;;5035215;28;20009;-77
2022/01/04 00:49:39;;;;;;;69.43;33.08;;;6.90;99.90;;;;;;5053001;28;20031;-77
2022/01/04 00:52:05;;;;;;;69.03;33.05;;;7.00;99.90;;;;;;5052797;28;20496;-77
2022/01/04 00:54:33;;;;;;;73.85;34.05;;;7.00;99.90;;;;;;5033827;28;20021;-77
2022/01/04 00:56:59;;;;;;;65.72;32.10;;;7.00;99.90;;;;;;5034468;28;20028;-78
2022/01/04 00:59:25;;;;;;;69.78;32.72;;;6.90;99.90;;;;;;5052811;28;20107;-77
2022/01/04 01:01:51;;;;;;;69.03;31.60;;;7.00;99.90;;;;;;5052980;28;20017;-77
2022/01/04 01:04:18;;;;;;;69.88;31.80;;;7.00;99.90;;;;;;5053041;28;20025;-77
2022/01/04 01:06:44;;;;;;;70.72;32.47;;;7.00;99.90;;;;;;5052947;28;20041;-77
2022/01/04 01:09:10;;;;;;;79.60;33.83;;;6.90;99.90;;;;;;5052945;28;20025;-77
2022/01/04 01:14:11;;;;;;;75.68;33.97;;;7.00;99.90;;;;;;4869344;26;20053;-77
2022/01/04 01:16:36;;;;;;;80.15;33.97;;;7.00;99.90;;;;;;5012324;28;20026;-77
2022/01/04 01:19:02;;;;;;;70.57;31.23;;;7.10;99.90;;;;;;5012744;28;20026;-76
2022/01/04 01:21:28;;;;;;;70.40;32.03;;;7.00;99.90;;;;;;5013107;28;20033;-77
2022/01/04 01:23:54;;;;;;;72.95;33.03;;;7.00;99.90;;;;;;5013403;28;20096;-77
2022/01/04 01:26:20;;;;;;;80.45;33.85;;;7.00;99.90;;;;;;5013331;28;20049;-77
2022/01/04 01:28:45;;;;;;;70.32;32.50;;;7.10;99.90;;;;;;5012869;28;20034;-78
2022/01/04 01:31:12;;;;;;;69.88;31.65;;;7.10;99.90;;;;;;5012723;28;20088;-77
2022/01/04 01:33:37;;;;;;;78.20;31.98;;;7.00;99.90;;;;;;5012755;28;20483;-77
2022/01/04 01:36:04;;;;;;;68.35;31.15;;;7.00;99.90;;;;;;5012511;28;20029;-77
2022/01/04 01:38:29;;;;;;;73.90;32.35;;;7.10;99.90;;;;;;4994919;28;20603;-77
2022/01/04 01:40:55;;;;;;;74.47;31.88;;;7.00;99.90;;;;;;5012761;28;20046;-77
2022/01/04 01:43:24;;;;;;;68.40;32.38;;;7.00;99.90;;;;;;5013026;28;20072;-77
2022/01/04 01:45:51;;;;;;;64.38;31.15;;;7.00;99.90;;;;;;5013361;28;20050;-77
2022/01/04 01:48:16;;;;;;;69.20;30.42;;;7.00;99.90;;;;;;5016951;28;20030;-77
2022/01/04 01:50:42;;;;;;;67.65;30.55;;;7.00;99.90;;;;;;4999331;28;20080;-77
2022/01/04 01:53:08;;;;;;;66.95;31.40;;;7.00;99.90;;;;;;5016740;28;20026;-77
2022/01/04 01:55:35;;;;;;;68.65;31.63;;;7.00;99.90;;;;;;5016858;28;20029;-77
2022/01/04 01:58:01;;;;;;;61.10;30.90;;;7.00;99.90;;;;;;5016706;28;20029;-77
2022/01/04 02:00:29;;;;;;;62.28;29.45;;;7.00;99.90;;;;;;5016842;28;20053;-77
2022/01/04 02:02:55;;;;;;;68.97;31.65;;;7.00;99.90;;;;;;5016568;28;20022;-77
2022/01/04 02:05:21;;;;;;;63.85;29.85;;;7.00;99.90;;;;;;4999013;28;20626;-77
2022/01/04 02:07:48;;;;;;;62.92;30.45;;;7.00;99.90;;;;;;5016665;28;20450;-77
2022/01/04 02:10:14;;;;;;;67.30;29.95;;;7.00;99.90;;;;;;5016639;28;20026;-77
2022/01/04 02:12:46;;;;;;;71.05;31.63;;;7.00;99.90;;;;;;4998861;28;20053;-78
2022/01/04 02:15:15;;;;;;;63.28;28.65;;;7.00;99.90;;;;;;5016511;28;20026;-77
2022/01/04 02:17:41;;;;;;;58.95;27.80;;;7.00;99.90;;;;;;5016366;28;20034;-77
2022/01/04 02:20:08;;;;;;;60.30;29.17;;;7.00;99.90;;;;;;5016366;28;20026;-77
2022/01/04 02:22:34;;;;;;;62.05;29.52;;;7.00;99.90;;;;;;5016348;28;20029;-77
2022/01/04 02:25:00;;;;;;;66.00;30.45;;;7.00;99.90;;;;;;4998741;28;20064;-77
2022/01/04 02:27:26;;;;;;;71.90;30.50;;;7.00;99.90;;;;;;5016225;28;20026;-78
2022/01/04 02:29:52;;;;;;;68.63;29.50;;;7.00;99.90;;;;;;4998173;28;20034;-77
2022/01/04 02:32:19;;;;;;;68.85;30.95;;;7.00;99.90;;;;;;5015482;28;20030;-77
2022/01/04 02:34:49;;;;;;;64.57;29.35;;;7.00;99.90;;;;;;5016022;28;20360;-78
2022/01/04 02:37:23;;;;;;;63.95;29.83;;;7.00;99.90;;;;;;5015942;28;20036;-77
2022/01/04 02:39:52;;;;;;;61.05;28.58;;;7.00;99.90;;;;;;5016025;28;20032;-77
2022/01/04 02:42:18;;;;;;;61.90;29.42;;;7.00;99.90;;;;;;5015985;28;20022;-77
2022/01/04 02:44:44;;;;;;;70.88;28.40;;;7.00;99.90;;;;;;5015952;28;20092;-77
2022/01/04 02:47:10;;;;;;;68.55;30.02;;;7.00;99.90;;;;;;5016080;28;20177;-77
2022/01/04 02:49:36;;;;;;;64.10;27.70;;;7.00;99.90;;;;;;5015860;28;20026;-77
2022/01/04 02:52:03;;;;;;;66.40;29.13;;;7.00;99.90;;;;;;5015648;28;20047;-77
2022/01/04 02:54:28;;;;;;;68.72;26.35;;;7.00;99.90;;;;;;5015802;28;20176;-77
2022/01/04 02:56:54;;;;;;;69.03;27.23;;;7.10;99.90;;;;;;5015472;28;20538;-76
2022/01/04 02:59:20;;;;;;;62.58;25.85;;;7.10;99.90;;;;;;5015572;28;20160;-77
2022/01/04 03:01:46;;;;;;;59.42;25.13;;;7.10;99.90;;;;;;5015463;28;20034;-77
2022/01/04 03:04:11;;;;;;;63.88;25.40;;;7.10;99.90;;;;;;5015644;28;20030;-77
2022/01/04 03:06:37;;;;;;;58.70;24.67;;;7.10;99.90;;;;;;5015561;28;20030;-77
2022/01/04 03:09:05;;;;;;;59.08;25.17;;;7.10;99.90;;;;;;5015341;28;20026;-77
2022/01/04 03:11:32;;;;;;;56.83;25.10;;;7.10;99.90;;;;;;5015194;28;20042;-77
2022/01/04 03:13:58;;;;;;;57.00;24.00;;;7.10;99.90;;;;;;4997451;28;20652;-77
2022/01/04 03:16:24;;;;;;;50.80;24.85;;;7.10;99.90;;;;;;5015259;28;20483;-77
2022/01/04 03:19:07;;;;;;;57.13;24.15;;;7.10;99.90;;;;;;4997435;28;20084;-77
2022/01/04 03:21:35;;;;;;;52.17;23.35;;;7.10;99.90;;;;;;5014976;28;20105;-78
2022/01/04 03:24:03;;;;;;;52.72;23.08;;;7.10;99.90;;;;;;5015248;28;20058;-77
2022/01/04 03:26:29;;;;;;;61.10;24.80;;;7.10;99.90;;;;;;5015201;28;20545;-77
2022/01/04 03:28:55;;;;;;;52.00;23.00;;;7.10;99.90;;;;;;5015075;28;20096;-78
2022/01/04 03:31:21;;;;;;;45.75;22.33;;;7.10;99.90;;;;;;5015018;28;20026;-78
2022/01/04 03:33:48;;;;;;;55.08;23.35;;;7.10;99.90;;;;;;4997631;28;20640;-77
2022/01/04 03:36:14;;;;;;;59.05;23.15;;;7.10;99.90;;;;;;4997492;28;20109;-77
2022/01/04 03:38:42;;;;;;;58.40;25.08;;;7.10;99.90;;;;;;5014762;28;20030;-77
2022/01/04 03:41:09;;;;;;;51.90;23.80;;;7.10;99.90;;;;;;4997330;28;20383;-77
2022/01/04 03:43:37;;;;;;;48.95;22.30;;;7.10;99.90;;;;;;5014873;28;20044;-77
2022/01/04 03:46:07;;;;;;;51.08;22.05;;;7.10;99.90;;;;;;5016285;28;20045;-77
2022/01/04 03:48:37;;;;;;;49.95;21.17;;;7.10;99.90;;;;;;5014913;28;20113;-77
2022/01/04 03:51:03;;;;;;;51.97;21.92;;;7.10;99.90;;;;;;5014699;28;20475;-77
2022/01/04 03:53:29;;;;;;;45.30;21.05;;;7.10;99.90;;;;;;4996937;28;20460;-77
2022/01/04 03:55:56;;;;;;;52.17;21.52;;;7.10;99.90;;;;;;4997175;28;20029;-77
2022/01/04 03:58:22;;;;;;;52.53;21.98;;;7.10;99.90;;;;;;5014644;28;20034;-77
2022/01/04 04:00:48;;;;;;;52.03;21.98;;;7.10;99.90;;;;;;5014734;28;20026;-77
2022/01/04 04:03:14;;;;;;;51.95;20.90;;;7.10;99.90;;;;;;5014483;28;20080;-77
2022/01/04 04:05:40;;;;;;;52.83;23.05;;;7.10;99.90;;;;;;5014713;28;20461;-77
2022/01/04 04:08:06;;;;;;;47.33;20.23;;;7.10;99.90;;;;;;5014103;28;20598;-77
2022/01/04 04:10:31;;;;;;;47.85;20.38;;;7.10;99.90;;;;;;5014061;28;20056;-77
2022/01/04 04:12:57;;;;;;;48.65;20.45;;;7.10;99.90;;;;;;5014436;28;20185;-77
2022/01/04 04:15:23;;;;;;;51.20;21.58;;;7.10;99.90;;;;;;4996758;28;20040;-72
2022/01/04 04:17:49;;;;;;;50.60;20.88;;;7.20;99.90;;;;;;4997173;28;20034;-72
2022/01/04 04:20:15;;;;;;;54.47;22.85;;;7.10;99.90;;;;;;5015150;28;20025;-77
2022/01/04 04:22:41;;;;;;;48.72;20.75;;;7.10;99.90;;;;;;5014203;28;20022;-77
2022/01/04 04:25:08;;;;;;;53.13;21.25;;;7.10;99.90;;;;;;4996254;28;20507;-77
2022/01/04 04:27:33;;;;;;;50.78;22.92;;;7.10;99.90;;;;;;5013516;28;20045;-77
2022/01/04 04:29:59;;;;;;;53.90;22.67;;;7.10;99.90;;;;;;5013637;28;20439;-77
2022/01/04 04:32:25;;;;;;;46.42;20.92;;;7.10;99.90;;;;;;5013588;28;20032;-77
2022/01/04 04:34:51;;;;;;;53.58;21.50;;;7.10;99.90;;;;;;5013680;28;20018;-77
2022/01/04 04:37:17;;;;;;;49.80;22.38;;;7.20;99.90;;;;;;5013856;28;20120;-77
2022/01/04 04:39:43;;;;;;;51.67;21.58;;;7.20;99.90;;;;;;5013811;28;20026;-77
2022/01/04 04:42:09;;;;;;;57.50;23.48;;;7.20;99.90;;;;;;5013781;28;20496;-77
2022/01/04 04:44:34;;;;;;;52.30;22.00;;;7.20;99.90;;;;;;5013393;28;20022;-77
2022/01/04 04:47:00;;;;;;;50.33;21.25;;;7.20;99.90;;;;;;5013728;28;20101;-77
2022/01/04 04:49:26;;;;;;;52.83;21.67;;;7.20;99.90;;;;;;5013555;28;20022;-77
2022/01/04 04:51:54;;;;;;;46.17;20.08;;;7.20;99.90;;;;;;5013394;28;20080;-77
2022/01/04 04:54:20;;;;;;;47.35;20.38;;;7.20;99.90;;;;;;5013581;28;20045;-77
2022/01/04 04:56:46;;;;;;;49.50;19.88;;;7.20;99.90;;;;;;5013581;28;20487;-77
2022/01/04 04:59:12;;;;;;;49.63;19.92;;;7.20;99.90;;;;;;5013518;28;20058;-77
2022/01/04 05:01:38;;;;;;;47.83;19.42;;;7.20;99.90;;;;;;5013463;28;20084;-77
2022/01/04 05:04:04;;;;;;;45.55;20.20;;;7.20;99.90;;;;;;4995851;28;20479;-77
2022/01/04 05:06:30;;;;;;;47.70;20.38;;;7.20;99.90;;;;;;5013195;28;20030;-77
2022/01/04 05:08:56;;;;;;;43.80;19.65;;;7.10;99.90;;;;;;4995824;28;20076;-77
2022/01/04 05:11:21;;;;;;;47.13;20.60;;;7.20;99.90;;;;;;5013326;28;20108;-77
2022/01/04 05:13:47;;;;;;;56.25;22.13;;;7.20;99.90;;;;;;4995460;28;20096;-77
2022/01/04 05:16:13;;;;;;;56.72;21.88;;;7.10;99.90;;;;;;5013235;28;20041;-77
2022/01/04 05:18:40;;;;;;;46.80;21.10;;;7.10;99.90;;;;;;5013023;28;20372;-78
2022/01/04 05:21:05;;;;;;;51.60;21.48;;;7.10;99.90;;;;;;5013206;28;20454;-77
2022/01/04 05:23:32;;;;;;;46.22;20.05;;;7.10;99.90;;;;;;5013136;28;20057;-77
2022/01/04 05:25:58;;;;;;;48.13;21.15;;;7.10;99.90;;;;;;4995652;28;20372;-77
2022/01/04 05:28:23;;;;;;;46.58;19.90;;;7.10;99.90;;;;;;5013215;28;20030;-77
2022/01/04 05:30:50;;;;;;;48.33;20.60;;;7.10;99.90;;;;;;5013281;28;20030;-77
2022/01/04 05:33:16;;;;;;;49.80;21.25;;;7.10;99.90;;;;;;4995282;28;20029;-77
2022/01/04 05:35:41;;;;;;;52.42;21.02;;;7.10;99.90;;;;;;5013129;28;20494;-77
2022/01/04 05:38:07;;;;;;;46.90;21.48;;;7.10;99.90;;;;;;5012870;28;20121;-77
2022/01/04 05:40:34;;;;;;;48.90;19.65;;;7.20;99.90;;;;;;5013963;28;20021;-77
2022/01/04 05:43:00;;;;;;;45.50;19.88;;;7.20;99.90;;;;;;5032723;28;20018;-77
2022/01/04 05:45:26;;;;;;;49.78;20.90;;;7.20;99.90;;;;;;5032705;28;20164;-78
2022/01/04 05:47:52;;;;;;;44.90;18.30;;;7.20;99.90;;;;;;5014873;28;20029;-77
2022/01/04 05:50:18;;;;;;;45.50;19.58;;;7.10;99.90;;;;;;5032666;28;20033;-77
2022/01/04 05:52:44;;;;;;;40.78;18.77;;;7.10;99.90;;;;;;5003446;28;20033;-78
2022/01/04 05:55:10;;;;;;;40.75;18.85;;;7.10;99.90;;;;;;5012916;28;20030;-78
2022/01/04 05:57:36;;;;;;;44.78;19.15;;;7.10;99.90;;;;;;5012851;28;20034;-78
2022/01/04 06:00:05;;;;;;;46.42;20.00;;;7.10;99.90;;;;;;4995253;28;20054;-77
2022/01/04 06:02:31;;;;;;;44.42;21.35;;;7.10;99.90;;;;;;4994988;28;20121;-77
2022/01/04 06:04:57;;;;;;;45.55;20.98;;;7.10;99.90;;;;;;5012078;28;20057;-77
2022/01/04 06:07:23;;;;;;;49.17;20.00;;;7.10;99.90;;;;;;4994801;28;20021;-77
2022/01/04 06:09:52;;;;;;;44.17;19.00;;;7.10;99.90;;;;;;5012682;28;20446;-78
2022/01/04 06:14:58;;;;;;;55.80;22.42;;;7.10;99.90;;;;;;5012574;28;20030;-77
2022/01/04 06:17:30;;;;;;;49.13;22.58;;;7.10;99.90;;;;;;4995064;28;20088;-77
2022/01/04 06:19:58;;;;;;;51.45;22.08;;;7.10;99.90;;;;;;5012707;28;20527;-78
2022/01/04 06:22:25;;;;;;;47.97;22.35;;;7.10;99.90;;;;;;4994924;28;20476;-77
2022/01/04 06:24:51;;;;;;;49.95;22.25;;;7.10;99.90;;;;;;4995197;28;20026;-77
2022/01/04 06:27:17;;;;;;;58.42;24.95;;;7.10;99.90;;;;;;4995010;28;20053;-77
2022/01/04 06:29:44;;;;;;;48.53;22.98;;;7.10;99.90;;;;;;4994874;28;20096;-78
2022/01/04 06:32:11;;;;;;;54.40;22.92;;;7.10;99.90;;;;;;5013562;28;20060;-77
2022/01/04 06:34:38;;;;;;;56.35;23.67;;;7.10;99.90;;;;;;4998572;28;20452;-77
2022/01/04 06:37:04;;;;;;;60.08;24.13;;;7.10;99.90;;;;;;5016140;28;20434;-77
2022/01/04 06:39:30;;;;;;;62.55;25.80;;;7.10;99.90;;;;;;5016055;28;20057;-77
2022/01/04 06:41:55;;;;;;;62.15;26.00;;;7.10;99.90;;;;;;5015979;28;20514;-77
2022/01/04 06:44:21;;;;;;;59.33;26.02;;;7.10;99.90;;;;;;4998241;28;20057;-77
2022/01/04 06:46:47;;;;;;;67.38;27.98;;;7.10;99.90;;;;;;5015854;28;20018;-77
2022/01/04 06:49:14;;;;;;;58.42;26.75;;;7.10;99.90;;;;;;4998318;28;20053;-77
2022/01/04 06:51:41;;;;;;;59.60;27.45;;;7.10;99.90;;;;;;5015759;28;20079;-77
2022/01/04 06:54:08;;;;;;;61.15;29.27;;;7.10;99.90;;;;;;5015833;28;20033;-77
2022/01/04 06:56:34;;;;;;;64.63;27.15;;;7.10;99.90;;;;;;5016037;28;20032;-77
2022/01/04 06:59:00;;;;;;;69.22;29.20;;;7.10;99.90;;;;;;4998408;28;20087;-78
2022/01/04 07:01:26;;;;;;;65.97;30.58;;;7.10;99.90;;;;;;5015597;28;20104;-77
2022/01/04 07:03:52;;;;;;;62.20;29.02;;;7.10;99.90;;;;;;4997941;28;20022;-76
2022/01/04 07:06:17;;;;;;;71.38;30.55;;;7.10;99.90;;;;;;4997995;28;20032;-77
2022/01/04 07:08:43;;;;;;;64.25;30.15;;;7.10;99.90;;;;;;5015575;28;20399;-77
2022/01/04 07:11:09;;;;;;;65.90;29.60;;;7.10;99.90;;;;;;5015722;28;20105;-77
2022/01/04 07:13:35;;;;;;;65.25;29.42;;;7.10;99.90;;;;;;5015316;28;20050;-77
2022/01/04 07:16:01;;;;;;;72.55;30.88;;;7.10;99.90;;;;;;5015395;28;20033;-77
2022/01/04 07:18:27;;;;;;;71.70;33.00;;;7.10;99.90;;;;;;5015358;28;20045;-77
2022/01/04 07:20:53;;;;;;;65.00;30.88;;;7.10;99.90;;;;;;4997607;28;20053;-77
2022/01/04 07:23:18;;;;;;;74.35;32.30;;;7.10;99.90;;;;;;4997637;28;20026;-78
2022/01/04 07:25:44;;;;;;;71.00;32.92;;;7.10;99.90;;;;;;4997640;28;20029;-77
2022/01/04 07:28:10;;;;;;;65.50;30.15;;;7.10;99.90;;;;;;5015205;28;20033;-77
2022/01/04 07:30:36;;;;;;;66.78;30.60;;;7.10;99.90;;;;;;5015138;28;20037;-77
2022/01/04 07:33:02;;;;;;;63.88;29.95;;;7.10;99.90;;;;;;5015040;28;20038;-78
2022/01/04 07:35:28;;;;;;;70.45;31.80;;;7.10;99.90;;;;;;5014921;28;20033;-77
2022/01/04 07:37:53;;;;;;;69.60;31.70;;;7.10;99.90;;;;;;5014947;28;20387;-78
2022/01/04 07:40:20;;;;;;;71.68;32.08;;;7.10;99.90;;;;;;5014918;28;20064;-77
2022/01/04 07:42:46;;;;;;;68.45;32.25;;;7.10;99.90;;;;;;5014608;28;20018;-78
2022/01/04 07:45:12;;;;;;;66.47;31.73;;;7.10;99.90;;;;;;5014014;28;20030;-78
2022/01/04 07:47:41;;;;;;;73.45;32.50;;;7.10;99.90;;;;;;5014788;28;20101;-77
2022/01/04 07:50:07;;;;;;;63.85;31.60;;;7.10;99.90;;;;;;4997130;28;20058;-77
2022/01/04 07:52:33;;;;;;;71.45;32.25;;;7.10;99.90;;;;;;5014623;28;20022;-77
2022/01/04 07:55:00;;;;;;;69.75;32.83;;;7.10;99.90;;;;;;5014349;28;20029;-78
2022/01/04 07:57:26;;;;;;;66.25;31.67;;;7.10;99.90;;;;;;4994003;28;20028;-77
2022/01/04 07:59:52;;;;;;;75.28;33.72;;;7.10;99.90;;;;;;5014497;28;20022;-77
2022/01/04 08:02:18;;;;;;;69.57;32.78;;;7.10;99.90;;;;;;4982719;28;20480;-78
2022/01/04 08:04:43;;;;;;;72.43;33.42;;;7.10;99.90;;;;;;5004768;28;20109;-77
2022/01/04 08:07:09;;;;;;;79.38;34.70;;;7.10;99.90;;;;;;5002166;28;20414;-78
2022/01/04 08:09:35;;;;;;;70.05;34.95;;;7.10;99.90;;;;;;5005030;28;20022;-71
2022/01/04 08:12:04;;;;;;;80.80;36.83;;;7.10;99.90;;;;;;5001310;28;20539;-71
2022/01/04 08:14:30;;;;;;;76.70;36.95;;;7.10;99.90;;;;;;4983637;28;20081;-71
2022/01/04 08:16:56;;;;;;;83.93;38.70;;;7.10;99.90;;;;;;5002063;28;20632;-72
2022/01/04 08:19:21;;;;;;;85.43;39.53;;;7.10;99.90;;;;;;5001928;28;20019;-72
2022/01/04 08:21:47;;;;;;;89.97;39.65;;;7.10;99.90;;;;;;5004942;28;20018;-72
2022/01/04 08:24:13;;;;;;;86.75;39.17;;;7.10;99.90;;;;;;5002448;28;20021;-72
2022/01/04 08:26:39;;;;;;;90.13;42.33;;;7.10;99.90;;;;;;5002365;28;20018;-71
2022/01/04 08:29:05;;;;;;;95.68;42.42;;;7.10;99.90;;;;;;5002504;28;20400;-71
2022/01/04 08:31:31;;;;;;;92.43;41.47;;;7.10;99.90;;;;;;4993806;28;20030;-71
2022/01/04 08:33:57;;;;;;;92.22;40.55;;;7.20;99.90;;;;;;4994232;28;20065;-71
2022/01/04 08:36:26;;;;;;;88.45;39.42;;;7.20;99.90;;;;;;4994267;28;20421;-71
2022/01/04 08:38:52;;;;;;;89.60;39.85;;;7.20;99.90;;;;;;4993976;28;20048;-71
2022/01/04 08:41:18;;;;;;;89.95;39.92;;;7.20;99.90;;;;;;4993764;28;20101;-71
2022/01/04 08:43:44;;;;;;;92.97;40.85;;;7.20;99.90;;;;;;4993833;28;20097;-71
2022/01/04 08:46:09;;;;;;;89.85;39.90;;;7.10;99.90;;;;;;4993150;28;20026;-72
2022/01/04 08:48:35;;;;;;;90.63;37.92;;;7.20;99.90;;;;;;4975836;28;20037;-72
2022/01/04 08:51:01;;;;;;;95.72;41.10;;;7.20;99.90;;;;;;4977640;28;20459;-72
2022/01/04 08:53:26;;;;;;;90.57;38.17;;;7.20;99.90;;;;;;4993103;28;20117;-72
2022/01/04 08:55:52;;;;;;;84.03;37.67;;;7.20;99.90;;;;;;4976173;28;20028;-72
2022/01/04 08:58:18;;;;;;;95.85;41.17;;;7.30;99.90;;;;;;4993607;28;20052;-71
2022/01/04 09:00:44;;;;;;;91.40;40.08;;;7.30;99.90;;;;;;4976086;28;20464;-72
2022/01/04 09:03:10;;;;;;;86.90;38.00;;;7.30;99.90;;;;;;4976048;28;20027;-72
2022/01/04 09:05:36;;;;;;;92.80;39.33;;;7.30;99.90;;;;;;4993609;28;20412;-72
2022/01/04 09:08:02;;;;;;;86.28;37.85;;;7.30;99.90;;;;;;4976004;28;20037;-72
2022/01/04 09:10:28;;;;;;;85.60;37.35;;;7.30;99.90;;;;;;4992311;28;20026;-72
2022/01/04 09:13:00;;;;;;;83.30;38.75;;;7.40;99.90;;;;;;4998693;28;20046;-71
2022/01/04 09:15:30;;;;;;;77.05;38.88;;;7.40;99.90;;;;;;5000749;28;20623;-71
2022/01/04 09:20:45;;;;;;;90.03;41.58;;;7.30;99.90;;;;;;5000697;28;20037;-72
2022/01/04 09:23:13;;;;;;;85.13;39.83;;;7.40;99.90;;;;;;5008607;28;20025;-72
2022/01/04 09:25:39;;;;;;;78.07;38.72;;;7.40;99.90;;;;;;5005551;28;20105;-72
2022/01/04 09:28:04;;;;;;;78.78;35.72;;;7.40;99.90;;;;;;5001592;28;20186;-71
2022/01/04 09:30:30;;;;;;;79.28;37.85;;;7.40;99.90;;;;;;5001228;28;20093;-72
2022/01/04 09:32:56;;;;;;;78.57;36.85;;;7.50;99.90;;;;;;5003081;28;20038;-72
2022/01/04 09:35:22;;;;;;;77.43;34.63;;;7.50;99.90;;;;;;5002594;28;20026;-72
2022/01/04 09:37:47;;;;;;;83.53;40.05;;;7.50;99.90;;;;;;5001734;28;20014;-71
2022/01/04 09:40:13;;;;;;;87.65;39.30;;;7.50;99.90;;;;;;4995769;28;20029;-71
2022/01/04 09:42:39;;;;;;;92.95;41.70;;;7.50;99.90;;;;;;5002037;28;20022;-71
2022/01/04 09:45:06;;;;;;;89.03;39.03;;;7.60;99.90;;;;;;5000817;28;20084;-72
2022/01/04 09:47:32;;;;;;;80.65;37.45;;;7.60;99.90;;;;;;4975579;28;20018;-71
2022/01/04 09:49:58;;;;;;;87.32;38.65;;;7.60;99.90;;;;;;4997427;28;20084;-72
2022/01/04 09:52:24;;;;;;;84.18;38.97;;;7.60;99.90;;;;;;5003785;28;20026;-71
2022/01/04 09:54:54;;;;;;;85.18;37.67;;;7.50;99.90;;;;;;5005235;28;20520;-72
2022/01/04 09:57:20;;;;;;;81.22;37.08;;;7.60;99.90;;;;;;4993211;28;20102;-71
2022/01/04 09:59:47;;;;;;;79.18;38.08;;;7.60;99.90;;;;;;4999096;28;20042;-71
2022/01/04 10:02:18;;;;;;;84.43;37.03;;;7.60;99.90;;;;;;5012791;28;20076;-77
2022/01/04 10:04:44;;;;;;;82.95;37.15;;;7.60;99.90;;;;;;5012906;28;20057;-77
2022/01/04 10:07:14;;;;;;;83.25;37.67;;;7.60;99.90;;;;;;4996486;28;20026;-78
2022/01/04 10:09:48;;;;;;;80.35;37.33;;;7.60;99.90;;;;;;5016867;28;20412;-77
2022/01/04 10:12:17;;;;;;;96.35;40.88;;;7.60;99.90;;;;;;5016626;28;20042;-77
2022/01/04 10:14:46;;;;;;;88.82;38.83;;;7.50;99.90;;;;;;5016320;28;20026;-77
2022/01/04 10:17:23;;;;;;;83.25;39.08;;;7.60;99.90;;;;;;5016131;28;20383;-77
2022/01/04 10:19:54;;;;;;;85.55;38.40;;;7.60;99.90;;;;;;4998327;28;20444;-77
2022/01/04 10:22:35;;;;;;;82.78;38.08;;;7.50;99.90;;;;;;5015913;28;20026;-77
2022/01/04 10:25:00;;;;;;;83.40;37.15;;;7.50;99.90;;;;;;4998377;28;20037;-77
2022/01/04 10:27:44;;;;;;;74.15;35.58;;;7.40;99.90;;;;;;5015961;28;20017;-77
2022/01/04 10:30:20;;;;;;;77.60;36.35;;;7.40;99.90;;;;;;4998278;28;20071;-77
2022/01/04 10:33:08;;;;;;;75.53;37.72;;;7.40;99.90;;;;;;5015834;28;20025;-77
2022/01/04 10:35:40;;;;;;;72.43;34.78;;;7.50;99.90;;;;;;5015705;28;20464;-77
2022/01/04 10:38:21;;;;;;;80.18;37.85;;;7.50;99.90;;;;;;5015705;28;20546;-77
2022/01/04 10:40:51;;;;;;;82.95;37.75;;;7.50;99.90;;;;;;5015576;28;20533;-77
2022/01/04 10:43:21;;;;;;;78.82;36.33;;;7.50;99.90;;;;;;5015696;28;20018;-78
2022/01/04 10:45:48;;;;;;;80.68;36.63;;;7.40;99.90;;;;;;5015642;28;20468;-77
2022/01/04 10:48:39;;;;;;;72.15;36.00;;;7.40;99.90;;;;;;5015520;28;20026;-78
2022/01/04 10:51:11;;;;;;;74.13;36.65;;;7.40;99.90;;;;;;4990319;28;20040;-77
2022/01/04 10:53:42;;;;;;;79.00;36.83;;;7.50;99.90;;;;;;5015340;28;20026;-77
2022/01/04 10:56:10;;;;;;;74.32;35.90;;;7.50;99.90;;;;;;5015452;28;20026;-78
2022/01/04 10:58:41;;;;;;;80.32;37.65;;;7.50;99.90;;;;;;5015233;28;20038;-77
2022/01/04 11:01:19;;;;;;;84.50;38.97;;;7.50;99.90;;;;;;5015342;28;20026;-77
2022/01/04 11:03:49;;;;;;;80.47;38.25;;;7.50;99.90;;;;;;5015201;28;20494;-77
2022/01/04 11:06:19;;;;;;;90.88;40.58;;;7.50;99.90;;;;;;5015132;28;20037;-77
2022/01/04 11:08:45;;;;;;;81.85;38.47;;;7.50;99.90;;;;;;5015041;28;20034;-77
2022/01/04 11:11:11;;;;;;;77.82;37.40;;;7.50;99.90;;;;;;5015227;28;20105;-77
2022/01/04 11:13:38;;;;;;;78.95;38.65;;;7.50;99.90;;;;;;5014921;28;20057;-77
2022/01/04 11:16:04;;;;;;;80.82;36.35;;;7.50;99.90;;;;;;4997377;28;20030;-77
2022/01/04 11:18:31;;;;;;;83.18;37.92;;;7.50;99.90;;;;;;5014775;28;20109;-78
2022/01/04 11:20:58;;;;;;;84.47;38.67;;;7.50;99.90;;;;;;5014772;28;20032;-77
2022/01/04 11:23:29;;;;;;;82.60;38.70;;;7.50;99.90;;;;;;5014951;28;20014;-77
2022/01/04 11:25:56;;;;;;;85.32;38.75;;;7.50;99.90;;;;;;5014736;28;20014;-77
2022/01/04 11:28:22;;;;;;;89.28;40.95;;;7.50;99.90;;;;;;4997006;28;20022;-77
2022/01/04 11:30:54;;;;;;;98.97;41.97;;;7.50;99.90;;;;;;5014285;28;20033;-77
2022/01/04 11:34:03;;;;;;;100.27;43.63;;;7.50;99.90;;;;;;5014348;28;20079;-77
2022/01/04 11:36:33;;;;;;;96.22;43.28;;;7.50;99.90;;;;;;4967233;28;20050;-77
2022/01/04 11:38:59;;;;;;;104.45;42.80;;;7.50;99.90;;;;;;4994891;28;20026;-76
2022/01/04 11:41:32;;;;;;;94.70;42.67;;;7.50;99.90;;;;;;4994860;28;20061;-77
2022/01/04 11:44:15;;;;;;;105.40;43.30;;;7.50;99.90;;;;;;4977748;28;20030;-77
2022/01/04 11:46:41;;;;;;;97.13;42.05;;;7.50;99.90;;;;;;4995278;28;20485;-78
2022/01/04 11:49:09;;;;;;;105.90;44.03;;;7.50;99.90;;;;;;4995269;28;20034;-77
2022/01/04 11:51:36;;;;;;;98.00;44.38;;;7.50;99.90;;;;;;4997353;28;20113;-78
2022/01/04 11:54:14;;;;;;;108.30;42.88;;;7.50;99.90;;;;;;5014740;28;20447;-77
2022/01/04 11:56:53;;;;;;;110.38;43.88;;;7.50;99.90;;;;;;5014514;28;20494;-77
2022/01/04 11:59:43;;;;;;;103.03;43.08;;;7.50;99.90;;;;;;5014514;28;20395;-77
2022/01/04 12:02:39;;;;;;;98.22;39.55;;;7.50;99.90;;;;;;5014458;28;20021;-77
2022/01/04 12:05:15;;;;;;;93.97;39.22;;;7.60;99.90;;;;;;5014398;28;20065;-76
2022/01/04 12:07:46;;;;;;;96.00;39.10;;;7.60;99.90;;;;;;5014538;28;20042;-77
2022/01/04 12:10:18;;;;;;;93.57;39.22;;;7.60;99.90;;;;;;5014201;28;20026;-77
2022/01/04 12:12:56;;;;;;;93.03;38.42;;;7.60;99.90;;;;;;5014210;28;20046;-77
2022/01/04 12:15:43;;;;;;;94.38;36.03;;;7.70;99.90;;;;;;5013304;28;20499;-77
2022/01/04 12:18:29;;;;;;;98.72;37.83;;;7.70;99.90;;;;;;4999118;28;20026;-78
2022/01/04 12:21:00;;;;;;;97.18;36.85;;;7.70;99.90;;;;;;5014023;28;20034;-77
2022/01/04 12:23:26;;;;;;;106.45;40.10;;;7.70;99.90;;;;;;5013716;28;20049;-77
2022/01/04 12:26:03;;;;;;;92.07;37.05;;;7.80;99.90;;;;;;5008623;28;20050;-77
2022/01/04 12:28:40;;;;;;;89.70;34.28;;;7.80;99.90;;;;;;5014201;28;20049;-76
2022/01/04 12:31:19;;;;;;;88.60;34.53;;;7.80;99.90;;;;;;4998701;28;20034;-77
2022/01/04 12:33:48;;;;;;;86.55;34.83;;;7.80;99.90;;;;;;4980776;28;20037;-76
2022/01/04 12:36:37;;;;;;;82.45;34.70;;;7.90;99.90;;;;;;5006077;28;20053;-78
2022/01/04 12:39:04;;;;;;;84.05;33.90;;;7.90;99.90;;;;;;5000467;28;20044;-77
2022/01/04 12:41:31;;;;;;;78.07;32.75;;;7.90;99.90;;;;;;5013809;28;20018;-77
2022/01/04 12:43:57;;;;;;;82.25;33.35;;;7.90;99.90;;;;;;5000213;28;20022;-77
2022/01/04 12:46:32;;;;;;;80.82;33.92;;;7.90;99.90;;;;;;4994031;28;20034;-77
2022/01/04 12:49:04;;;;;;;74.63;33.13;;;7.90;99.90;;;;;;5002338;28;20053;-77